SOL2904 AGGH-NVVV
Flight info
| Callsign | SOL2904 |
|---|---|
| Flight time | 1h 38m |
| Altitude | 37000 |
| Route | NIPE1A SAKPI B598 VLI |
| Aircraft | A320/M-SDE3FGHIRWY/LB1 |
Departure
| Time | 2026-05-07 20:19 |
|---|---|
| Airport | Honiara International Airport (AGGH) |
Arrival
| Time | 2026-05-07 21:57 |
|---|---|
| Airport | Bauerfield International Airport (NVVV) |
| Time | Latitude | Longitude | Altitude | Speed | Heading |
|---|---|---|---|---|---|
| 2026-05-07 20:08 | -9.42833 | 160.04558 | 19 ft | 0 kts | 296° |
| 2026-05-07 20:16 | -9.42835 | 160.04552 | 22 ft | 3 kts | 260° |
| 2026-05-07 20:16 | -9.42862 | 160.04500 | 28 ft | 13 kts | 233° |
| 2026-05-07 20:16 | -9.42932 | 160.04482 | 28 ft | 12 kts | 126° |
| 2026-05-07 20:16 | -9.43014 | 160.04527 | 27 ft | 15 kts | 160° |
| 2026-05-07 20:17 | -9.43121 | 160.04565 | 27 ft | 18 kts | 160° |
| 2026-05-07 20:17 | -9.43148 | 160.04634 | 30 ft | 0 kts | 68° |
| 2026-05-07 20:17 | -9.43143 | 160.04647 | 30 ft | 4 kts | 68° |
| 2026-05-07 20:17 | -9.43140 | 160.04655 | 28 ft | 0 kts | 68° |
| 2026-05-07 20:18 | -9.43135 | 160.04669 | 27 ft | 1 kts | 68° |
| 2026-05-07 20:18 | -9.43134 | 160.04669 | 27 ft | 1 kts | 68° |
| 2026-05-07 20:18 | -9.43091 | 160.04776 | 24 ft | 55 kts | 68° |
| 2026-05-07 20:18 | -9.42833 | 160.05423 | 31 ft | 138 kts | 68° |
| 2026-05-07 20:19 | -9.42393 | 160.06507 | 255 ft | 183 kts | 68° |
| 2026-05-07 20:19 | -9.41908 | 160.07715 | 1185 ft | 185 kts | 69° |
| 2026-05-07 20:19 | -9.41437 | 160.08919 | 2151 ft | 182 kts | 74° |
| 2026-05-07 20:19 | -9.41212 | 160.10208 | 2547 ft | 195 kts | 90° |
| 2026-05-07 20:20 | -9.41395 | 160.11652 | 2808 ft | 219 kts | 107° |
| 2026-05-07 20:20 | -9.42097 | 160.13110 | 3186 ft | 244 kts | 126° |
| 2026-05-07 20:20 | -9.43368 | 160.14329 | 3772 ft | 260 kts | 147° |
| 2026-05-07 20:20 | -9.45059 | 160.15021 | 4631 ft | 266 kts | 166° |
| 2026-05-07 20:21 | -9.46869 | 160.15447 | 5502 ft | 269 kts | 166° |
| 2026-05-07 20:21 | -9.48700 | 160.15875 | 6363 ft | 272 kts | 166° |
| 2026-05-07 20:21 | -9.50565 | 160.16313 | 7159 ft | 276 kts | 166° |
| 2026-05-07 20:21 | -9.52448 | 160.16759 | 7951 ft | 280 kts | 166° |
| 2026-05-07 20:22 | -9.54360 | 160.17214 | 8738 ft | 284 kts | 166° |
| 2026-05-07 20:22 | -9.56276 | 160.17669 | 9511 ft | 288 kts | 166° |
| 2026-05-07 20:22 | -9.58172 | 160.18359 | 10204 ft | 293 kts | 151° |
| 2026-05-07 20:22 | -9.59871 | 160.19594 | 10548 ft | 312 kts | 137° |
| 2026-05-07 20:23 | -9.61509 | 160.21155 | 10706 ft | 335 kts | 136° |
| 2026-05-07 20:23 | -9.63257 | 160.22829 | 10819 ft | 356 kts | 137° |
| 2026-05-07 20:23 | -9.65108 | 160.24603 | 10943 ft | 375 kts | 136° |
| 2026-05-07 20:23 | -9.67048 | 160.26456 | 11130 ft | 389 kts | 137° |
| 2026-05-07 20:24 | -9.69035 | 160.28345 | 11610 ft | 394 kts | 136° |
| 2026-05-07 20:24 | -9.71048 | 160.30251 | 12155 ft | 398 kts | 136° |
| 2026-05-07 20:24 | -9.73082 | 160.32174 | 12671 ft | 402 kts | 136° |
| 2026-05-07 20:24 | -9.75129 | 160.34114 | 13173 ft | 405 kts | 136° |
| 2026-05-07 20:25 | -9.77196 | 160.36077 | 13681 ft | 409 kts | 136° |
| 2026-05-07 20:25 | -9.79276 | 160.38052 | 14129 ft | 411 kts | 136° |
| 2026-05-07 20:25 | -9.81344 | 160.40018 | 14605 ft | 413 kts | 136° |
| 2026-05-07 20:25 | -9.83446 | 160.42018 | 15068 ft | 416 kts | 136° |
| 2026-05-07 20:26 | -9.85566 | 160.44035 | 15489 ft | 419 kts | 136° |
| 2026-05-07 20:26 | -9.87696 | 160.46061 | 15933 ft | 421 kts | 135° |
| 2026-05-07 20:26 | -9.89842 | 160.48099 | 16381 ft | 423 kts | 135° |
| 2026-05-07 20:26 | -9.91997 | 160.50142 | 16812 ft | 426 kts | 135° |
| 2026-05-07 20:27 | -9.94166 | 160.52203 | 17237 ft | 428 kts | 135° |
| 2026-05-07 20:27 | -9.96345 | 160.54278 | 17655 ft | 431 kts | 135° |
| 2026-05-07 20:27 | -9.98538 | 160.56368 | 18064 ft | 433 kts | 135° |
| 2026-05-07 20:27 | -10.00742 | 160.58468 | 18437 ft | 435 kts | 135° |
| 2026-05-07 20:28 | -10.02956 | 160.60575 | 18772 ft | 438 kts | 135° |
| 2026-05-07 20:28 | -10.05191 | 160.62701 | 19111 ft | 440 kts | 135° |
| 2026-05-07 20:28 | -10.07402 | 160.64803 | 19442 ft | 443 kts | 135° |
| 2026-05-07 20:28 | -10.09655 | 160.66945 | 19768 ft | 445 kts | 135° |
| 2026-05-07 20:29 | -10.11927 | 160.69108 | 20097 ft | 448 kts | 135° |
| 2026-05-07 20:29 | -10.14208 | 160.71281 | 20420 ft | 450 kts | 135° |
| 2026-05-07 20:29 | -10.16498 | 160.73462 | 20732 ft | 453 kts | 135° |
| 2026-05-07 20:29 | -10.18805 | 160.75664 | 21048 ft | 455 kts | 135° |
| 2026-05-07 20:30 | -10.21116 | 160.77875 | 21348 ft | 458 kts | 135° |
| 2026-05-07 20:30 | -10.23433 | 160.80099 | 21650 ft | 460 kts | 135° |
| 2026-05-07 20:30 | -10.25759 | 160.82336 | 21935 ft | 462 kts | 135° |
| 2026-05-07 20:30 | -10.28097 | 160.84589 | 22202 ft | 464 kts | 135° |
| 2026-05-07 20:31 | -10.30442 | 160.86846 | 22455 ft | 466 kts | 135° |
| 2026-05-07 20:31 | -10.32805 | 160.89117 | 22705 ft | 468 kts | 135° |
| 2026-05-07 20:31 | -10.35173 | 160.91391 | 22928 ft | 470 kts | 135° |
| 2026-05-07 20:31 | -10.37524 | 160.93651 | 23148 ft | 472 kts | 135° |
| 2026-05-07 20:32 | -10.39914 | 160.95953 | 23369 ft | 474 kts | 135° |
| 2026-05-07 20:32 | -10.42311 | 160.98257 | 23571 ft | 475 kts | 135° |
| 2026-05-07 20:32 | -10.44721 | 161.00567 | 23758 ft | 477 kts | 135° |
| 2026-05-07 20:32 | -10.47134 | 161.02886 | 23958 ft | 479 kts | 135° |
| 2026-05-07 20:33 | -10.49561 | 161.05223 | 24157 ft | 481 kts | 135° |
| 2026-05-07 20:33 | -10.51991 | 161.07567 | 24351 ft | 482 kts | 136° |
| 2026-05-07 20:33 | -10.54431 | 161.09919 | 24554 ft | 484 kts | 136° |
| 2026-05-07 20:33 | -10.56878 | 161.12276 | 24758 ft | 486 kts | 136° |
| 2026-05-07 20:34 | -10.59330 | 161.14634 | 25019 ft | 486 kts | 136° |
| 2026-05-07 20:34 | -10.61783 | 161.16995 | 25322 ft | 485 kts | 136° |
| 2026-05-07 20:34 | -10.64235 | 161.19354 | 25609 ft | 485 kts | 136° |
| 2026-05-07 20:34 | -10.66692 | 161.21720 | 25923 ft | 485 kts | 136° |
| 2026-05-07 20:35 | -10.69141 | 161.24085 | 26244 ft | 485 kts | 136° |
| 2026-05-07 20:35 | -10.71585 | 161.26446 | 26555 ft | 485 kts | 136° |
| 2026-05-07 20:35 | -10.74030 | 161.28810 | 26876 ft | 485 kts | 136° |
| 2026-05-07 20:35 | -10.76474 | 161.31175 | 27178 ft | 485 kts | 136° |
| 2026-05-07 20:36 | -10.78914 | 161.33540 | 27504 ft | 485 kts | 137° |
| 2026-05-07 20:36 | -10.81358 | 161.35908 | 27833 ft | 485 kts | 137° |
| 2026-05-07 20:36 | -10.83806 | 161.38275 | 28168 ft | 485 kts | 137° |
| 2026-05-07 20:36 | -10.86223 | 161.40610 | 28503 ft | 486 kts | 137° |
| 2026-05-07 20:37 | -10.88672 | 161.42979 | 28836 ft | 486 kts | 137° |
| 2026-05-07 20:37 | -10.91123 | 161.45354 | 29182 ft | 486 kts | 137° |
| 2026-05-07 20:37 | -10.93574 | 161.47730 | 29582 ft | 485 kts | 137° |
| 2026-05-07 20:37 | -10.96016 | 161.50099 | 29953 ft | 485 kts | 137° |
| 2026-05-07 20:38 | -10.98460 | 161.52472 | 30282 ft | 485 kts | 137° |
| 2026-05-07 20:38 | -11.00897 | 161.54838 | 30629 ft | 484 kts | 137° |
| 2026-05-07 20:38 | -11.03334 | 161.57203 | 31004 ft | 483 kts | 137° |
| 2026-05-07 20:38 | -11.05763 | 161.59562 | 31347 ft | 482 kts | 137° |
| 2026-05-07 20:39 | -11.08195 | 161.61921 | 31709 ft | 482 kts | 137° |
| 2026-05-07 20:39 | -11.10619 | 161.64267 | 32073 ft | 481 kts | 137° |
| 2026-05-07 20:39 | -11.13042 | 161.66615 | 32431 ft | 481 kts | 137° |
| 2026-05-07 20:39 | -11.15463 | 161.68963 | 32808 ft | 480 kts | 137° |
| 2026-05-07 20:40 | -11.17880 | 161.71310 | 33205 ft | 479 kts | 137° |
| 2026-05-07 20:40 | -11.20290 | 161.73656 | 33599 ft | 478 kts | 137° |
| 2026-05-07 20:40 | -11.22694 | 161.75995 | 33967 ft | 478 kts | 137° |
| 2026-05-07 20:40 | -11.25097 | 161.78336 | 34312 ft | 477 kts | 137° |
| 2026-05-07 20:41 | -11.27494 | 161.80674 | 34684 ft | 476 kts | 137° |
| 2026-05-07 20:41 | -11.29887 | 161.83002 | 35043 ft | 475 kts | 137° |
| 2026-05-07 20:41 | -11.32245 | 161.85291 | 35409 ft | 474 kts | 137° |
| 2026-05-07 20:41 | -11.34631 | 161.87606 | 35752 ft | 473 kts | 137° |
| 2026-05-07 20:42 | -11.37013 | 161.89922 | 36075 ft | 473 kts | 137° |
| 2026-05-07 20:42 | -11.39392 | 161.92240 | 36421 ft | 472 kts | 137° |
| 2026-05-07 20:42 | -11.41764 | 161.94550 | 36743 ft | 471 kts | 137° |
| 2026-05-07 20:42 | -11.44136 | 161.96859 | 36889 ft | 472 kts | 137° |
| 2026-05-07 20:43 | -11.46521 | 161.99183 | 36926 ft | 475 kts | 137° |
| 2026-05-07 20:43 | -11.51311 | 162.03851 | 36911 ft | 477 kts | 137° |
| 2026-05-07 20:44 | -11.56111 | 162.08532 | 36910 ft | 478 kts | 137° |
| 2026-05-07 20:44 | -11.60919 | 162.13214 | 36923 ft | 478 kts | 137° |
| 2026-05-07 20:45 | -11.65722 | 162.17904 | 36922 ft | 478 kts | 137° |
| 2026-05-07 20:45 | -11.70519 | 162.22605 | 36923 ft | 478 kts | 137° |
| 2026-05-07 20:46 | -11.75329 | 162.27302 | 36930 ft | 479 kts | 137° |
| 2026-05-07 20:46 | -11.80111 | 162.31964 | 36935 ft | 478 kts | 137° |
| 2026-05-07 20:47 | -11.84916 | 162.36663 | 36942 ft | 478 kts | 137° |
| 2026-05-07 20:47 | -11.89727 | 162.41357 | 36938 ft | 478 kts | 137° |
| 2026-05-07 20:48 | -11.94524 | 162.46062 | 36936 ft | 479 kts | 137° |
| 2026-05-07 20:48 | -11.99333 | 162.50778 | 36936 ft | 479 kts | 137° |
| 2026-05-07 20:49 | -12.04143 | 162.55490 | 36932 ft | 479 kts | 137° |
| 2026-05-07 20:49 | -12.08916 | 162.60162 | 36931 ft | 479 kts | 137° |
| 2026-05-07 20:50 | -12.13721 | 162.64875 | 36934 ft | 478 kts | 137° |
| 2026-05-07 20:50 | -12.18515 | 162.69585 | 36918 ft | 478 kts | 137° |
| 2026-05-07 20:51 | -12.22505 | 162.73506 | 36935 ft | 478 kts | 138° |
| 2026-05-07 20:51 | -12.27313 | 162.78229 | 36926 ft | 479 kts | 137° |
| 2026-05-07 20:52 | -12.32113 | 162.82949 | 36923 ft | 479 kts | 138° |
| 2026-05-07 20:52 | -12.36920 | 162.87674 | 36927 ft | 479 kts | 137° |
| 2026-05-07 20:53 | -12.41727 | 162.92405 | 36942 ft | 480 kts | 137° |
| 2026-05-07 20:53 | -12.46541 | 162.97143 | 36943 ft | 480 kts | 138° |
| 2026-05-07 20:54 | -12.51352 | 163.01878 | 36939 ft | 480 kts | 137° |
| 2026-05-07 20:54 | -12.56158 | 163.06623 | 36940 ft | 480 kts | 137° |
| 2026-05-07 20:55 | -12.60930 | 163.11336 | 36938 ft | 480 kts | 138° |
| 2026-05-07 20:55 | -12.65744 | 163.16071 | 36934 ft | 480 kts | 138° |
| 2026-05-07 20:56 | -12.70555 | 163.20818 | 36930 ft | 480 kts | 138° |
| 2026-05-07 20:56 | -12.75367 | 163.25575 | 36946 ft | 481 kts | 138° |
| 2026-05-07 20:57 | -12.80180 | 163.30335 | 36944 ft | 481 kts | 138° |
| 2026-05-07 20:57 | -12.84993 | 163.35105 | 36953 ft | 481 kts | 137° |
| 2026-05-07 20:58 | -12.89808 | 163.39875 | 36944 ft | 481 kts | 137° |
| 2026-05-07 20:58 | -12.94598 | 163.44617 | 36953 ft | 482 kts | 138° |
| 2026-05-07 20:59 | -12.99428 | 163.49385 | 36946 ft | 482 kts | 138° |
| 2026-05-07 20:59 | -13.04261 | 163.54159 | 36944 ft | 482 kts | 138° |
| 2026-05-07 21:00 | -13.09077 | 163.58940 | 36952 ft | 482 kts | 138° |
| 2026-05-07 21:00 | -13.13886 | 163.63732 | 36954 ft | 482 kts | 138° |
| 2026-05-07 21:01 | -13.18701 | 163.68512 | 36951 ft | 482 kts | 138° |
| 2026-05-07 21:01 | -13.23531 | 163.73304 | 36944 ft | 482 kts | 137° |
| 2026-05-07 21:02 | -13.28359 | 163.78104 | 36960 ft | 482 kts | 137° |
| 2026-05-07 21:02 | -13.33147 | 163.82873 | 36951 ft | 482 kts | 137° |
| 2026-05-07 21:03 | -13.37982 | 163.87672 | 36950 ft | 482 kts | 138° |
| 2026-05-07 21:03 | -13.42786 | 163.92441 | 36945 ft | 482 kts | 137° |
| 2026-05-07 21:04 | -13.47598 | 163.97247 | 36949 ft | 483 kts | 137° |
| 2026-05-07 21:04 | -13.52421 | 164.02052 | 36956 ft | 483 kts | 137° |
| 2026-05-07 21:05 | -13.57262 | 164.06841 | 36951 ft | 483 kts | 138° |
| 2026-05-07 21:05 | -13.62069 | 164.11601 | 36954 ft | 483 kts | 137° |
| 2026-05-07 21:06 | -13.66899 | 164.16400 | 36958 ft | 483 kts | 137° |
| 2026-05-07 21:06 | -13.71735 | 164.21206 | 36960 ft | 483 kts | 138° |
| 2026-05-07 21:07 | -13.76565 | 164.26009 | 36960 ft | 483 kts | 138° |
| 2026-05-07 21:07 | -13.81395 | 164.30816 | 36960 ft | 483 kts | 138° |
| 2026-05-07 21:08 | -13.86231 | 164.35627 | 36949 ft | 483 kts | 138° |
| 2026-05-07 21:08 | -13.91035 | 164.40416 | 36950 ft | 483 kts | 137° |
| 2026-05-07 21:09 | -13.95868 | 164.45234 | 36958 ft | 483 kts | 138° |
| 2026-05-07 21:09 | -14.00696 | 164.50059 | 36956 ft | 483 kts | 137° |
| 2026-05-07 21:10 | -14.05526 | 164.54884 | 36958 ft | 483 kts | 137° |
| 2026-05-07 21:10 | -14.10355 | 164.59708 | 36961 ft | 484 kts | 137° |
| 2026-05-07 21:11 | -14.15187 | 164.64536 | 36965 ft | 484 kts | 137° |
| 2026-05-07 21:11 | -14.22411 | 164.71749 | 36959 ft | 484 kts | 137° |
| 2026-05-07 21:12 | -14.27236 | 164.76581 | 36963 ft | 483 kts | 137° |
| 2026-05-07 21:12 | -14.32057 | 164.81415 | 36957 ft | 483 kts | 137° |
| 2026-05-07 21:13 | -14.36867 | 164.86256 | 36967 ft | 483 kts | 137° |
| 2026-05-07 21:13 | -14.41688 | 164.91089 | 36960 ft | 483 kts | 138° |
| 2026-05-07 21:14 | -14.46517 | 164.95922 | 36963 ft | 483 kts | 138° |
| 2026-05-07 21:14 | -14.51338 | 165.00759 | 36959 ft | 484 kts | 138° |
| 2026-05-07 21:15 | -14.56126 | 165.05575 | 36967 ft | 484 kts | 137° |
| 2026-05-07 21:15 | -14.60947 | 165.10435 | 36965 ft | 484 kts | 138° |
| 2026-05-07 21:16 | -14.65776 | 165.15287 | 36968 ft | 484 kts | 138° |
| 2026-05-07 21:16 | -14.70594 | 165.20138 | 36963 ft | 484 kts | 138° |
| 2026-05-07 21:17 | -14.75412 | 165.25002 | 36972 ft | 484 kts | 138° |
| 2026-05-07 21:17 | -14.80238 | 165.29868 | 36960 ft | 484 kts | 138° |
| 2026-05-07 21:18 | -14.85041 | 165.34705 | 36973 ft | 484 kts | 138° |
| 2026-05-07 21:18 | -14.89866 | 165.39575 | 36975 ft | 485 kts | 138° |
| 2026-05-07 21:19 | -14.94687 | 165.44445 | 36968 ft | 485 kts | 138° |
| 2026-05-07 21:19 | -14.99516 | 165.49319 | 36969 ft | 485 kts | 138° |
| 2026-05-07 21:20 | -15.04344 | 165.54201 | 36976 ft | 485 kts | 138° |
| 2026-05-07 21:20 | -15.09165 | 165.59091 | 36969 ft | 485 kts | 138° |
| 2026-05-07 21:21 | -15.13989 | 165.63983 | 36969 ft | 485 kts | 138° |
| 2026-05-07 21:21 | -15.18817 | 165.68874 | 36991 ft | 485 kts | 138° |
| 2026-05-07 21:22 | -15.23621 | 165.73742 | 36977 ft | 486 kts | 138° |
| 2026-05-07 21:22 | -15.28450 | 165.78645 | 36977 ft | 486 kts | 138° |
| 2026-05-07 21:23 | -15.33286 | 165.83552 | 36970 ft | 486 kts | 139° |
| 2026-05-07 21:23 | -15.38116 | 165.88469 | 36976 ft | 487 kts | 138° |
| 2026-05-07 21:24 | -15.42954 | 165.93396 | 36977 ft | 486 kts | 139° |
| 2026-05-07 21:24 | -15.47760 | 165.98273 | 36984 ft | 486 kts | 139° |
| 2026-05-07 21:25 | -15.52591 | 166.03183 | 36983 ft | 486 kts | 138° |
| 2026-05-07 21:25 | -15.57421 | 166.08105 | 36989 ft | 487 kts | 139° |
| 2026-05-07 21:26 | -15.62248 | 166.13024 | 36986 ft | 487 kts | 139° |
| 2026-05-07 21:26 | -15.67081 | 166.17961 | 36979 ft | 486 kts | 139° |
| 2026-05-07 21:27 | -15.71899 | 166.22891 | 36989 ft | 486 kts | 139° |
| 2026-05-07 21:27 | -15.76716 | 166.27813 | 36984 ft | 486 kts | 139° |
| 2026-05-07 21:28 | -15.81534 | 166.32747 | 36991 ft | 486 kts | 139° |
| 2026-05-07 21:28 | -15.86352 | 166.37673 | 36994 ft | 486 kts | 139° |
| 2026-05-07 21:29 | -15.91138 | 166.42575 | 36989 ft | 486 kts | 139° |
| 2026-05-07 21:29 | -15.95950 | 166.47504 | 36998 ft | 486 kts | 139° |
| 2026-05-07 21:30 | -16.00755 | 166.52433 | 36996 ft | 486 kts | 139° |
| 2026-05-07 21:30 | -16.05565 | 166.57377 | 36993 ft | 486 kts | 139° |
| 2026-05-07 21:31 | -16.10371 | 166.62312 | 36993 ft | 485 kts | 139° |
| 2026-05-07 21:31 | -16.15179 | 166.67244 | 36990 ft | 485 kts | 139° |
| 2026-05-07 21:32 | -16.19976 | 166.72180 | 36989 ft | 485 kts | 139° |
| 2026-05-07 21:32 | -16.24768 | 166.77118 | 36995 ft | 485 kts | 139° |
| 2026-05-07 21:33 | -16.29534 | 166.82024 | 36997 ft | 485 kts | 139° |
| 2026-05-07 21:33 | -16.34326 | 166.86976 | 36988 ft | 485 kts | 139° |
| 2026-05-07 21:34 | -16.39133 | 166.91919 | 36988 ft | 486 kts | 139° |
| 2026-05-07 21:34 | -16.43967 | 166.96904 | 36993 ft | 486 kts | 139° |
| 2026-05-07 21:35 | -16.48734 | 167.01833 | 36993 ft | 486 kts | 139° |
| 2026-05-07 21:35 | -16.53534 | 167.06796 | 36995 ft | 486 kts | 139° |
| 2026-05-07 21:36 | -16.58334 | 167.11763 | 37000 ft | 486 kts | 139° |
| 2026-05-07 21:36 | -16.63136 | 167.16734 | 37004 ft | 486 kts | 139° |
| 2026-05-07 21:37 | -16.67938 | 167.21708 | 37007 ft | 487 kts | 139° |
| 2026-05-07 21:37 | -16.72739 | 167.26690 | 37006 ft | 487 kts | 139° |
| 2026-05-07 21:38 | -16.75132 | 167.29176 | 36813 ft | 487 kts | 139° |
| 2026-05-07 21:38 | -16.77547 | 167.31680 | 36564 ft | 487 kts | 140° |
| 2026-05-07 21:38 | -16.79942 | 167.34161 | 36321 ft | 487 kts | 140° |
| 2026-05-07 21:38 | -16.82355 | 167.36668 | 36078 ft | 487 kts | 139° |
| 2026-05-07 21:39 | -16.84764 | 167.39173 | 35844 ft | 488 kts | 139° |
| 2026-05-07 21:39 | -16.86358 | 167.40831 | 35681 ft | 488 kts | 139° |
| 2026-05-07 21:39 | -16.88764 | 167.43335 | 35451 ft | 489 kts | 139° |
| 2026-05-07 21:39 | -16.91172 | 167.45840 | 35218 ft | 489 kts | 139° |
| 2026-05-07 21:40 | -16.94398 | 167.49197 | 34903 ft | 489 kts | 139° |
| 2026-05-07 21:40 | -16.95996 | 167.50861 | 34756 ft | 490 kts | 139° |
| 2026-05-07 21:40 | -16.98387 | 167.53343 | 34535 ft | 489 kts | 141° |
| 2026-05-07 21:40 | -17.01025 | 167.55544 | 34310 ft | 483 kts | 149° |
| 2026-05-07 21:41 | -17.03761 | 167.57688 | 33998 ft | 486 kts | 147° |
| 2026-05-07 21:41 | -17.06389 | 167.59836 | 33359 ft | 486 kts | 147° |
| 2026-05-07 21:41 | -17.09073 | 167.62028 | 32555 ft | 487 kts | 147° |
| 2026-05-07 21:41 | -17.11754 | 167.64205 | 31718 ft | 488 kts | 147° |
| 2026-05-07 21:42 | -17.14447 | 167.66375 | 30871 ft | 490 kts | 147° |
| 2026-05-07 21:42 | -17.17164 | 167.68548 | 29998 ft | 491 kts | 147° |
| 2026-05-07 21:42 | -17.19863 | 167.70685 | 28971 ft | 493 kts | 146° |
| 2026-05-07 21:42 | -17.22592 | 167.72862 | 27910 ft | 495 kts | 142° |
| 2026-05-07 21:43 | -17.25028 | 167.75443 | 26674 ft | 503 kts | 134° |
| 2026-05-07 21:43 | -17.27390 | 167.78182 | 25471 ft | 507 kts | 133° |
| 2026-05-07 21:43 | -17.29737 | 167.80940 | 24348 ft | 508 kts | 133° |
| 2026-05-07 21:43 | -17.32066 | 167.83695 | 23558 ft | 502 kts | 132° |
| 2026-05-07 21:44 | -17.34357 | 167.86406 | 22688 ft | 493 kts | 132° |
| 2026-05-07 21:44 | -17.36620 | 167.89074 | 21801 ft | 485 kts | 132° |
| 2026-05-07 21:44 | -17.38849 | 167.91689 | 20913 ft | 477 kts | 132° |
| 2026-05-07 21:44 | -17.41050 | 167.94260 | 20058 ft | 471 kts | 132° |
| 2026-05-07 21:45 | -17.43223 | 167.96795 | 19246 ft | 464 kts | 132° |
| 2026-05-07 21:45 | -17.45324 | 167.99248 | 18317 ft | 450 kts | 132° |
| 2026-05-07 21:45 | -17.47384 | 168.01661 | 16744 ft | 439 kts | 131° |
| 2026-05-07 21:45 | -17.49403 | 168.04034 | 15188 ft | 432 kts | 131° |
| 2026-05-07 21:46 | -17.51389 | 168.06369 | 13760 ft | 426 kts | 130° |
| 2026-05-07 21:46 | -17.53348 | 168.08672 | 12264 ft | 420 kts | 130° |
| 2026-05-07 21:46 | -17.55261 | 168.10922 | 11367 ft | 402 kts | 130° |
| 2026-05-07 21:46 | -17.57053 | 168.13021 | 11006 ft | 370 kts | 130° |
| 2026-05-07 21:47 | -17.58700 | 168.14948 | 10800 ft | 341 kts | 130° |
| 2026-05-07 21:47 | -17.60218 | 168.16730 | 10645 ft | 316 kts | 130° |
| 2026-05-07 21:47 | -17.61645 | 168.18412 | 10351 ft | 302 kts | 130° |
| 2026-05-07 21:47 | -17.63042 | 168.20063 | 10126 ft | 301 kts | 129° |
| 2026-05-07 21:48 | -17.64422 | 168.21692 | 9927 ft | 298 kts | 129° |
| 2026-05-07 21:48 | -17.65801 | 168.23314 | 9804 ft | 298 kts | 129° |
| 2026-05-07 21:48 | -17.67164 | 168.24919 | 9679 ft | 297 kts | 130° |
| 2026-05-07 21:48 | -17.68540 | 168.26542 | 9552 ft | 297 kts | 129° |
| 2026-05-07 21:49 | -17.69911 | 168.28158 | 9425 ft | 296 kts | 129° |
| 2026-05-07 21:49 | -17.71272 | 168.29761 | 9188 ft | 298 kts | 129° |
| 2026-05-07 21:49 | -17.72656 | 168.31392 | 8776 ft | 298 kts | 129° |
| 2026-05-07 21:49 | -17.74029 | 168.33009 | 8475 ft | 296 kts | 129° |
| 2026-05-07 21:50 | -17.75396 | 168.34621 | 8099 ft | 296 kts | 129° |
| 2026-05-07 21:50 | -17.76762 | 168.36234 | 7750 ft | 295 kts | 129° |
| 2026-05-07 21:50 | -17.78117 | 168.37834 | 7539 ft | 288 kts | 130° |
| 2026-05-07 21:50 | -17.79399 | 168.39345 | 7415 ft | 267 kts | 130° |
| 2026-05-07 21:51 | -17.80593 | 168.40750 | 7303 ft | 248 kts | 130° |
| 2026-05-07 21:51 | -17.81703 | 168.42054 | 7146 ft | 233 kts | 130° |
| 2026-05-07 21:51 | -17.82699 | 168.43364 | 6819 ft | 227 kts | 117° |
| 2026-05-07 21:51 | -17.83196 | 168.44902 | 6441 ft | 222 kts | 94° |
| 2026-05-07 21:52 | -17.83119 | 168.46481 | 6018 ft | 218 kts | 74° |
| 2026-05-07 21:52 | -17.82507 | 168.47919 | 5604 ft | 215 kts | 54° |
| 2026-05-07 21:52 | -17.81453 | 168.49018 | 5197 ft | 215 kts | 36° |
| 2026-05-07 21:52 | -17.80066 | 168.49662 | 4634 ft | 224 kts | 15° |
| 2026-05-07 21:53 | -17.78495 | 168.49628 | 4037 ft | 234 kts | 343° |
| 2026-05-07 21:53 | -17.77141 | 168.48649 | 3422 ft | 245 kts | 308° |
| 2026-05-07 21:53 | -17.76531 | 168.46987 | 2783 ft | 250 kts | 276° |
| 2026-05-07 21:53 | -17.76265 | 168.45183 | 2301 ft | 247 kts | 284° |
| 2026-05-07 21:54 | -17.75718 | 168.43547 | 2155 ft | 226 kts | 296° |
| 2026-05-07 21:54 | -17.75029 | 168.42130 | 2072 ft | 213 kts | 297° |
| 2026-05-07 21:54 | -17.74357 | 168.40772 | 1779 ft | 203 kts | 298° |
| 2026-05-07 21:54 | -17.73745 | 168.39547 | 1519 ft | 175 kts | 299° |
| 2026-05-07 21:55 | -17.73200 | 168.38461 | 1273 ft | 162 kts | 299° |
| 2026-05-07 21:55 | -17.72684 | 168.37436 | 1049 ft | 157 kts | 298° |
| 2026-05-07 21:55 | -17.72179 | 168.36435 | 851 ft | 154 kts | 297° |
| 2026-05-07 21:55 | -17.71688 | 168.35439 | 674 ft | 154 kts | 300° |
| 2026-05-07 21:56 | -17.71188 | 168.34442 | 440 ft | 157 kts | 301° |
| 2026-05-07 21:56 | -17.70674 | 168.33466 | 295 ft | 149 kts | 297° |
| 2026-05-07 21:56 | -17.70218 | 168.32534 | 73 ft | 137 kts | 297° |
| 2026-05-07 21:56 | -17.69831 | 168.31793 | 75 ft | 91 kts | 298° |
| 2026-05-07 21:57 | -17.69585 | 168.31314 | 66 ft | 69 kts | 299° |
| 2026-05-07 21:57 | -17.69380 | 168.30893 | 63 ft | 53 kts | 300° |
| 2026-05-07 21:57 | -17.69262 | 168.30750 | 64 ft | 12 kts | 275° |
| 2026-05-07 21:57 | -17.69298 | 168.30714 | 61 ft | 1 kts | 152° |
| 2026-05-07 21:58 | -17.69316 | 168.30759 | 63 ft | 14 kts | 115° |
| 2026-05-07 21:58 | -17.69386 | 168.30901 | 64 ft | 28 kts | 122° |
| 2026-05-07 21:58 | -17.69488 | 168.31086 | 64 ft | 29 kts | 118° |
| 2026-05-07 21:58 | -17.69582 | 168.31277 | 74 ft | 31 kts | 117° |
| 2026-05-07 21:59 | -17.69685 | 168.31486 | 69 ft | 33 kts | 118° |
| 2026-05-07 21:59 | -17.69795 | 168.31703 | 72 ft | 34 kts | 117° |
| 2026-05-07 21:59 | -17.69904 | 168.31916 | 66 ft | 28 kts | 118° |
| 2026-05-07 21:59 | -17.69997 | 168.31920 | 66 ft | 14 kts | 199° |
| 2026-05-07 22:00 | -17.70062 | 168.31993 | 68 ft | 16 kts | 136° |
| 2026-05-07 22:00 | -17.70107 | 168.31966 | 62 ft | 0 kts | 251° |